»·PEaware :: N521CE KSFO-KMRY

N521CE :: KSFO-KMRY

FLIGHT INFORMATION

Flight Status: Arrived
Operator: Privately registered:
United States
More flights under this callsign
Pilot: Conor D. (31229)
Aircraft: CESSNA 152 AEROBAT
(C152)
More flights by this aircraft type
Origin: KSFO San Francisco Intl
United States
Destination: KMRY Monterey Peninsula
United States
More flights between these airports :: More routes between these airports
Route: +
File this flight plan on PilotEdge
Remarks:
Altitude:
(Current/Filed)
0ft
Speed:
(Current/Filed)
0kts
Departed: 25-Oct-20 10:27 AM
Arrived: 25-Oct-20 11:17 AM
Distance/Time
Traveled:
67nm/0:50
Distance/Time
To Go:
Arrived

Flight Plot

Page will automatically refresh every two minutes.

Flight plan parsing failed; only flown route is shown


Map Options




Map Legend


Flown Route
Filed Route
Departure Airport
Arrival Airport
Navaid (VOR, NDB)
Fix

Horizontal Profiles

Position Reports

Time Latitude Longitude Heading Altitude Ground
Speed
25-Oct-20 10:07 37.629175 -122.387970 15 11ft 0kts
25-Oct-20 10:08 37.629175 -122.387969 15 11ft 0kts
25-Oct-20 10:09 37.629175 -122.387970 15 11ft 0kts
25-Oct-20 10:10 37.629175 -122.387970 15 11ft 0kts
25-Oct-20 10:11 37.629175 -122.387970 15 11ft 0kts
25-Oct-20 10:12 37.629175 -122.387970 15 11ft 0kts
25-Oct-20 10:13 37.629175 -122.387970 15 11ft 0kts
25-Oct-20 10:14 37.629175 -122.387970 15 11ft 0kts
25-Oct-20 10:15 37.629175 -122.387969 19 11ft 0kts
25-Oct-20 10:16 37.627670 -122.387181 109 13ft 13kts
25-Oct-20 10:17 37.624998 -122.380769 119 11ft 23kts
25-Oct-20 10:18 37.622295 -122.375616 230 12ft 11kts
25-Oct-20 10:19 37.619606 -122.379412 223 15ft 13kts
25-Oct-20 10:20 37.616903 -122.378712 190 11ft 12kts
25-Oct-20 10:21 37.612448 -122.381491 208 8ft 20kts
25-Oct-20 10:22 37.608404 -122.383722 116 16ft 0kts
25-Oct-20 10:23 37.608404 -122.383722 116 16ft 0kts
25-Oct-20 10:24 37.608404 -122.383722 116 16ft 0kts
25-Oct-20 10:25 37.608404 -122.383722 116 16ft 0kts
25-Oct-20 10:26 37.611412 -122.380606 27 10ft 68kts
25-Oct-20 10:27 37.630524 -122.369304 2 802ft 71kts
25-Oct-20 10:28 37.624325 -122.382153 196 1580ft 72kts
25-Oct-20 10:29 37.603269 -122.394179 204 1950ft 99kts
25-Oct-20 10:30 37.578583 -122.408952 208 1968ft 99kts
25-Oct-20 10:31 37.557336 -122.428607 222 2193ft 94kts
25-Oct-20 10:32 37.536679 -122.450254 204 2460ft 97kts
25-Oct-20 10:33 37.511616 -122.468919 198 2415ft 103kts
25-Oct-20 10:34 37.485695 -122.458265 154 2382ft 105kts
25-Oct-20 10:35 37.460116 -122.443264 156 2039ft 98kts
25-Oct-20 10:36 37.434973 -122.430960 162 1863ft 94kts
25-Oct-20 10:37 37.410043 -122.421521 165 1863ft 93kts
25-Oct-20 10:38 37.384474 -122.415388 170 1867ft 93kts
25-Oct-20 10:39 37.359003 -122.408435 167 1872ft 93kts
25-Oct-20 10:40 37.333570 -122.401182 169 1875ft 93kts
25-Oct-20 10:41 37.308837 -122.391355 157 1894ft 93kts
25-Oct-20 10:42 37.285209 -122.379877 162 2325ft 96kts
25-Oct-20 10:43 37.261628 -122.363302 144 2391ft 98kts
25-Oct-20 10:44 37.237849 -122.346071 154 2462ft 98kts
25-Oct-20 10:45 37.212148 -122.333574 166 2527ft 98kts
25-Oct-20 10:46 37.185102 -122.327495 173 2593ft 98kts
25-Oct-20 10:47 37.157709 -122.327767 187 2624ft 101kts
25-Oct-20 10:48 37.131229 -122.323575 141 2585ft 99kts
25-Oct-20 10:50 37.110559 -122.299994 135 2324ft 98kts
25-Oct-20 10:51 37.090592 -122.276811 140 2217ft 98kts
25-Oct-20 10:52 37.070349 -122.254797 138 2200ft 95kts
25-Oct-20 10:53 37.052193 -122.230732 126 2190ft 95kts
25-Oct-20 10:54 37.036288 -122.204696 129 2223ft 93kts
25-Oct-20 10:55 37.020486 -122.178435 125 2239ft 94kts
25-Oct-20 10:56 37.005470 -122.151468 122 2239ft 95kts
25-Oct-20 10:57 36.989729 -122.125018 135 2253ft 94kts
25-Oct-20 10:58 36.968538 -122.110508 173 2795ft 71kts
25-Oct-20 10:59 36.946571 -122.105468 163 3446ft 66kts
25-Oct-20 11:00 36.927703 -122.099162 169 4031ft 82kts
25-Oct-20 11:01 36.902424 -122.088902 162 4071ft 108kts
25-Oct-20 11:02 36.873469 -122.077316 165 3123ft 112kts
25-Oct-20 11:03 36.845370 -122.064883 158 1957ft 105kts
25-Oct-20 11:04 36.819125 -122.050894 159 1601ft 99kts
25-Oct-20 11:05 36.794183 -122.038972 161 1478ft 93kts
25-Oct-20 11:05 36.773947 -122.029464 159 1480ft 92kts
25-Oct-20 11:07 36.744501 -122.016639 160 1263ft 98kts
25-Oct-20 11:07 36.723511 -122.007558 162 1102ft 93kts
25-Oct-20 11:09 36.694431 -121.997686 167 935ft 92kts
25-Oct-20 11:09 36.673800 -121.991083 168 995ft 92kts
25-Oct-20 11:11 36.646167 -121.976968 137 1058ft 93kts
25-Oct-20 11:11 36.631812 -121.957087 129 951ft 93kts
25-Oct-20 11:12 36.616624 -121.930646 118 785ft 95kts
25-Oct-20 11:13 36.606461 -121.900907 116 648ft 93kts
25-Oct-20 11:14 36.596891 -121.873339 113 499ft 70kts
25-Oct-20 11:15 36.589535 -121.851765 115 185ft 56kts
25-Oct-20 11:16 36.588058 -121.845476 20 204ft 0kts
25-Oct-20 11:17 36.588828 -121.845724 0 201ft 0kts

Navigation Log

Ident Type
Flight plan parsing failed, navigation log unavailable